Time;durP1;ratioP1;P1;durP2;ratioP2;P2;SDS_P1;SDS_P2;PMS_P1;PMS_P2;Temp;Humidity;BMP_temperature;BMP_pressure;BME280_temperature;BME280_humidity;BME280_pressure;Samples;Min_cycle;Max_cycle;Signal;HPM_P1;HPM_P2
2020/12/07 00:00:21;;;;;;;1.60;1.30;;;4.80;98.20;;;;;;5103524;28;20464;-76
2020/12/07 00:02:48;;;;;;;1.60;1.40;;;4.80;98.20;;;;;;5098240;28;20820;-76
2020/12/07 00:05:15;;;;;;;1.60;1.50;;;4.80;98.20;;;;;;5100769;28;20547;-76
2020/12/07 00:07:41;;;;;;;1.60;1.30;;;4.70;98.20;;;;;;5102378;28;20461;-77
2020/12/07 00:10:08;;;;;;;1.60;1.30;;;4.70;98.20;;;;;;5102425;28;20457;-77
2020/12/07 00:12:35;;;;;;;1.60;1.30;;;4.70;98.20;;;;;;5097278;28;20523;-77
2020/12/07 00:15:02;;;;;;;1.60;1.30;;;4.70;98.20;;;;;;5101746;28;20483;-77
2020/12/07 00:17:29;;;;;;;1.60;1.43;;;4.70;98.20;;;;;;5096047;28;20452;-76
2020/12/07 00:19:56;;;;;;;1.60;1.30;;;4.70;98.20;;;;;;5096194;28;20462;-77
2020/12/07 00:22:23;;;;;;;1.60;1.40;;;4.70;98.20;;;;;;5099862;28;20724;-76
2020/12/07 00:24:50;;;;;;;1.60;1.30;;;4.70;98.20;;;;;;5101852;28;20540;-77
2020/12/07 00:27:23;;;;;;;1.60;1.30;;;4.70;98.20;;;;;;5099306;28;20457;-76
2020/12/07 00:29:50;;;;;;;1.60;1.50;;;4.70;98.20;;;;;;5100492;28;20624;-77
2020/12/07 00:32:17;;;;;;;1.60;1.30;;;4.70;98.20;;;;;;5098982;28;20543;-76
2020/12/07 00:34:44;;;;;;;1.63;1.53;;;4.70;98.20;;;;;;5100816;28;20495;-76
2020/12/07 00:37:12;;;;;;;1.60;1.40;;;4.70;98.20;;;;;;5100221;28;20461;-76
2020/12/07 00:39:38;;;;;;;1.60;1.30;;;4.60;98.20;;;;;;5096676;28;20469;-76
2020/12/07 00:42:05;;;;;;;1.60;1.40;;;4.60;98.20;;;;;;5100830;28;20465;-77
2020/12/07 00:44:32;;;;;;;1.60;1.30;;;4.60;98.20;;;;;;5102306;28;20523;-76
2020/12/07 00:46:58;;;;;;;1.60;1.30;;;4.60;98.20;;;;;;5101483;28;20455;-78
2020/12/07 00:49:25;;;;;;;1.60;1.30;;;4.60;98.20;;;;;;5104824;28;20470;-77
2020/12/07 00:51:51;;;;;;;1.60;1.40;;;4.60;98.20;;;;;;5100379;28;20464;-76
2020/12/07 00:54:18;;;;;;;1.60;1.40;;;4.60;98.20;;;;;;5102673;28;20640;-77
2020/12/07 00:56:45;;;;;;;1.60;1.30;;;4.60;98.20;;;;;;5096751;28;20492;-75
2020/12/07 00:59:11;;;;;;;1.60;1.30;;;4.60;98.20;;;;;;5100479;28;20489;-75
2020/12/07 01:01:38;;;;;;;1.60;1.40;;;4.60;98.20;;;;;;5100595;28;20750;-76
2020/12/07 01:04:05;;;;;;;1.60;1.30;;;4.60;98.20;;;;;;5096272;28;20542;-76
2020/12/07 01:06:32;;;;;;;1.60;1.33;;;4.60;98.20;;;;;;5097633;28;20543;-77
2020/12/07 01:09:00;;;;;;;1.60;1.40;;;4.60;98.20;;;;;;5100173;28;20488;-76
2020/12/07 01:11:27;;;;;;;1.60;1.40;;;4.60;98.20;;;;;;5097593;28;20623;-77
2020/12/07 01:13:53;;;;;;;1.60;1.30;;;4.60;98.20;;;;;;5102350;28;20475;-76
2020/12/07 01:16:21;;;;;;;1.60;1.30;;;4.60;98.20;;;;;;5102186;28;20455;-76
2020/12/07 01:18:48;;;;;;;1.60;1.40;;;4.60;98.20;;;;;;5106497;28;20465;-76
2020/12/07 01:21:15;;;;;;;1.60;1.40;;;4.60;98.20;;;;;;5101705;28;20449;-76
2020/12/07 01:23:44;;;;;;;1.60;1.40;;;4.60;98.20;;;;;;5104287;28;20452;-76
2020/12/07 01:26:11;;;;;;;1.60;1.40;;;4.60;98.20;;;;;;5103445;28;20481;-77
2020/12/07 01:28:38;;;;;;;1.60;1.50;;;4.60;98.20;;;;;;5103608;28;20460;-76
2020/12/07 01:31:05;;;;;;;1.60;1.40;;;4.60;98.20;;;;;;5098480;28;20469;-76
2020/12/07 01:33:31;;;;;;;1.60;1.40;;;4.60;98.20;;;;;;5100116;28;20488;-77
2020/12/07 01:35:57;;;;;;;1.60;1.30;;;4.60;98.20;;;;;;5103080;28;20477;-76
2020/12/07 01:38:24;;;;;;;1.60;1.30;;;4.60;98.20;;;;;;5103205;28;20457;-76
2020/12/07 01:40:51;;;;;;;1.63;1.50;;;4.60;98.20;;;;;;5102050;28;20457;-77
2020/12/07 01:43:17;;;;;;;1.60;1.40;;;4.60;98.20;;;;;;5104385;28;20592;-76
2020/12/07 01:45:45;;;;;;;1.60;1.30;;;4.60;98.20;;;;;;5102890;28;20550;-76
2020/12/07 01:48:11;;;;;;;1.60;1.43;;;4.50;98.20;;;;;;5099683;28;20487;-77
2020/12/07 01:50:40;;;;;;;1.60;1.33;;;4.50;98.20;;;;;;5101310;28;21040;-77
2020/12/07 01:53:07;;;;;;;1.60;1.50;;;4.50;98.20;;;;;;5104033;28;20453;-76
2020/12/07 01:55:34;;;;;;;1.60;1.30;;;4.50;98.20;;;;;;5101513;28;20959;-75
2020/12/07 01:58:00;;;;;;;1.60;1.30;;;4.50;98.20;;;;;;5095286;28;20472;-75
2020/12/07 02:00:27;;;;;;;1.60;1.40;;;4.50;98.20;;;;;;5104966;28;20480;-75
2020/12/07 02:02:54;;;;;;;1.60;1.30;;;4.50;98.20;;;;;;5102778;28;20496;-76
2020/12/07 02:05:21;;;;;;;1.60;1.40;;;4.50;98.20;;;;;;5092388;28;20516;-75
2020/12/07 02:07:47;;;;;;;1.60;1.37;;;4.50;98.20;;;;;;5105045;28;20486;-76
2020/12/07 02:10:14;;;;;;;1.60;1.43;;;4.50;98.20;;;;;;5106097;28;20480;-76
2020/12/07 02:12:40;;;;;;;1.60;1.40;;;4.50;98.20;;;;;;5094854;28;20461;-75
2020/12/07 02:15:19;;;;;;;1.70;1.60;;;4.50;98.20;;;;;;5100073;28;20511;-76
2020/12/07 02:17:45;;;;;;;1.60;1.50;;;4.50;98.20;;;;;;5081790;28;20490;-76
2020/12/07 02:20:12;;;;;;;1.60;1.40;;;4.50;98.20;;;;;;5104773;28;20491;-75
2020/12/07 02:22:39;;;;;;;1.60;1.30;;;4.50;98.20;;;;;;5108152;28;20491;-75
2020/12/07 02:25:05;;;;;;;1.60;1.40;;;4.50;98.20;;;;;;5093298;28;20519;-76
2020/12/07 02:27:33;;;;;;;1.60;1.50;;;4.50;98.20;;;;;;5089943;28;20493;-76
2020/12/07 02:29:59;;;;;;;1.60;1.30;;;4.50;98.20;;;;;;5094633;28;20460;-76
2020/12/07 02:32:25;;;;;;;1.60;1.37;;;4.50;98.20;;;;;;5096976;28;20457;-76
2020/12/07 02:34:52;;;;;;;1.60;1.30;;;4.50;98.20;;;;;;5097420;28;20473;-76
2020/12/07 02:37:19;;;;;;;1.60;1.50;;;4.40;98.20;;;;;;5091936;28;20507;-76
2020/12/07 02:39:45;;;;;;;1.60;1.30;;;4.40;98.20;;;;;;5095928;28;20881;-76
2020/12/07 02:42:12;;;;;;;1.60;1.50;;;4.40;98.20;;;;;;5095633;28;20490;-76
2020/12/07 02:44:38;;;;;;;1.87;1.70;;;4.40;98.20;;;;;;5095995;28;20501;-76
2020/12/07 02:47:05;;;;;;;1.70;1.60;;;4.40;98.20;;;;;;5100881;28;20488;-76
2020/12/07 02:49:31;;;;;;;12.10;3.00;;;4.40;98.20;;;;;;5107813;28;20477;-76
2020/12/07 02:51:58;;;;;;;1.60;1.30;;;4.40;98.20;;;;;;5101149;28;21003;-76
2020/12/07 02:54:25;;;;;;;1.70;1.50;;;4.40;98.20;;;;;;5096335;28;20587;-76
2020/12/07 02:56:51;;;;;;;1.70;1.30;;;4.40;98.20;;;;;;5096273;28;20495;-76
2020/12/07 02:59:17;;;;;;;1.60;1.37;;;4.40;98.20;;;;;;5098948;28;20481;-77
2020/12/07 03:01:44;;;;;;;1.60;1.30;;;4.40;98.20;;;;;;5095778;28;20460;-76
2020/12/07 03:04:10;;;;;;;1.60;1.50;;;4.40;98.20;;;;;;5095506;28;20495;-77
2020/12/07 03:06:37;;;;;;;1.60;1.43;;;4.30;98.20;;;;;;5098561;28;20496;-76
2020/12/07 03:09:03;;;;;;;1.60;1.40;;;4.30;98.20;;;;;;5098683;28;20488;-75
2020/12/07 03:11:30;;;;;;;1.90;1.80;;;4.30;98.20;;;;;;5092625;28;20496;-75
2020/12/07 03:13:57;;;;;;;1.60;1.30;;;4.30;98.20;;;;;;5097558;28;20513;-77
2020/12/07 03:16:23;;;;;;;1.60;1.30;;;4.30;98.20;;;;;;5095096;28;20485;-76
2020/12/07 03:18:49;;;;;;;1.60;1.30;;;4.30;98.20;;;;;;5091880;28;20492;-75
2020/12/07 03:21:16;;;;;;;2.70;2.50;;;4.30;98.20;;;;;;5093124;28;20470;-75
2020/12/07 03:23:42;;;;;;;1.60;1.37;;;4.30;98.20;;;;;;5099032;28;20492;-77
2020/12/07 03:26:08;;;;;;;1.60;1.50;;;4.30;98.20;;;;;;5094150;28;20481;-77
2020/12/07 03:28:36;;;;;;;1.63;1.47;;;4.30;98.20;;;;;;5094976;28;20851;-76
2020/12/07 03:31:02;;;;;;;1.60;1.30;;;4.30;98.20;;;;;;5098098;28;20479;-76
2020/12/07 03:33:28;;;;;;;1.60;1.50;;;4.30;98.20;;;;;;5097010;28;20464;-77
2020/12/07 03:35:55;;;;;;;1.60;1.30;;;4.30;98.20;;;;;;5095637;28;20469;-75
2020/12/07 03:38:21;;;;;;;1.60;1.40;;;4.30;98.20;;;;;;5101365;28;20465;-75
2020/12/07 03:40:48;;;;;;;1.60;1.40;;;4.30;98.20;;;;;;5087979;28;20506;-76
2020/12/07 03:43:14;;;;;;;1.70;1.60;;;4.30;98.20;;;;;;5092295;28;20980;-75
2020/12/07 03:45:43;;;;;;;1.60;1.40;;;4.20;98.20;;;;;;5090509;28;20504;-75
2020/12/07 03:48:09;;;;;;;1.70;1.50;;;4.20;98.20;;;;;;5093043;28;20453;-75
2020/12/07 03:50:36;;;;;;;1.60;1.40;;;4.20;98.20;;;;;;5096764;28;20480;-76
2020/12/07 03:53:02;;;;;;;1.60;1.40;;;4.20;98.20;;;;;;5095408;28;20485;-76
2020/12/07 03:55:29;;;;;;;1.60;1.40;;;4.30;98.20;;;;;;5093229;28;20679;-76
2020/12/07 03:57:55;;;;;;;1.60;1.40;;;4.30;98.20;;;;;;5095794;28;20449;-75
2020/12/07 04:00:21;;;;;;;1.60;1.40;;;4.30;98.20;;;;;;5091303;28;20489;-76
2020/12/07 04:02:48;;;;;;;1.60;1.40;;;4.30;98.20;;;;;;5092315;28;20952;-76
2020/12/07 04:05:19;;;;;;;1.60;1.30;;;4.30;98.20;;;;;;5087383;28;20576;-75
2020/12/07 04:07:46;;;;;;;1.60;1.30;;;4.30;98.20;;;;;;5092194;28;20453;-76
2020/12/07 04:10:13;;;;;;;1.60;1.40;;;4.30;98.20;;;;;;5087621;28;20530;-76
2020/12/07 04:12:39;;;;;;;1.60;1.40;;;4.30;98.20;;;;;;5095341;28;20464;-75
2020/12/07 04:15:06;;;;;;;1.70;1.60;;;4.30;98.20;;;;;;5101271;28;20523;-77
2020/12/07 04:17:32;;;;;;;1.63;1.50;;;4.30;98.20;;;;;;5087713;28;20497;-77
2020/12/07 04:19:59;;;;;;;1.60;1.40;;;4.30;98.20;;;;;;5095245;28;20697;-76
2020/12/07 04:22:25;;;;;;;1.60;1.40;;;4.30;98.20;;;;;;5097632;28;20464;-76
2020/12/07 04:24:52;;;;;;;1.60;1.30;;;4.30;98.20;;;;;;5095139;28;20504;-76
2020/12/07 04:27:18;;;;;;;1.60;1.40;;;4.30;98.20;;;;;;5098032;28;20487;-76
2020/12/07 04:29:45;;;;;;;1.60;1.50;;;4.30;98.20;;;;;;5099187;28;20452;-75
2020/12/07 04:32:11;;;;;;;1.60;1.30;;;4.30;98.20;;;;;;5100664;28;20464;-76
2020/12/07 04:34:37;;;;;;;1.60;1.37;;;4.30;98.20;;;;;;5102527;28;20526;-76
2020/12/07 04:37:05;;;;;;;1.60;1.40;;;4.30;98.20;;;;;;5091790;28;20994;-76
2020/12/07 04:39:31;;;;;;;1.60;1.30;;;4.30;98.20;;;;;;5093817;28;20477;-75
2020/12/07 04:41:58;;;;;;;1.60;1.40;;;4.30;98.20;;;;;;5093592;28;21021;-76
2020/12/07 04:44:25;;;;;;;1.60;1.40;;;4.30;98.20;;;;;;5095809;28;20476;-76
2020/12/07 04:46:52;;;;;;;1.60;1.50;;;4.30;98.20;;;;;;5091623;28;21021;-75
2020/12/07 04:49:21;;;;;;;1.60;1.30;;;4.30;98.20;;;;;;5094358;28;20463;-76
2020/12/07 04:51:49;;;;;;;1.60;1.40;;;4.30;98.20;;;;;;5097048;28;20504;-76
2020/12/07 04:54:16;;;;;;;1.60;1.50;;;4.30;98.20;;;;;;5094222;28;20542;-76
2020/12/07 04:56:43;;;;;;;1.63;1.40;;;4.30;98.20;;;;;;5097635;28;20464;-75
2020/12/07 04:59:10;;;;;;;1.70;1.60;;;4.30;98.20;;;;;;5099532;28;20460;-76
2020/12/07 05:01:36;;;;;;;1.60;1.30;;;4.30;98.20;;;;;;5096683;28;20867;-76
2020/12/07 05:04:03;;;;;;;1.60;1.30;;;4.30;98.20;;;;;;5090083;28;20488;-77
2020/12/07 05:06:30;;;;;;;1.60;1.30;;;4.30;98.20;;;;;;5096471;28;20511;-76
2020/12/07 05:08:57;;;;;;;1.60;1.30;;;4.30;98.20;;;;;;5098483;28;20457;-76
2020/12/07 05:11:25;;;;;;;1.63;1.40;;;4.30;98.20;;;;;;5094458;28;20549;-76
2020/12/07 05:13:57;;;;;;;1.60;1.40;;;4.30;98.20;;;;;;5090196;28;20449;-76
2020/12/07 05:16:24;;;;;;;1.60;1.40;;;4.30;98.20;;;;;;5089730;28;20465;-77
2020/12/07 05:18:51;;;;;;;1.60;1.30;;;4.30;98.20;;;;;;5098016;28;20471;-77
2020/12/07 05:21:18;;;;;;;1.60;1.30;;;4.30;98.20;;;;;;5097458;28;20461;-76
2020/12/07 05:23:50;;;;;;;1.60;1.40;;;4.30;98.20;;;;;;5092459;28;20461;-77
2020/12/07 05:26:18;;;;;;;1.60;1.30;;;4.30;98.20;;;;;;5095535;28;20481;-76
2020/12/07 05:28:48;;;;;;;1.60;1.30;;;4.30;98.20;;;;;;5098633;28;20520;-76
2020/12/07 05:31:16;;;;;;;1.60;1.40;;;4.30;98.20;;;;;;5096509;28;20468;-76
2020/12/07 05:33:42;;;;;;;1.60;1.50;;;4.30;98.20;;;;;;5090119;28;20465;-77
2020/12/07 05:36:10;;;;;;;1.70;1.60;;;4.30;98.20;;;;;;5093298;28;20457;-77
2020/12/07 05:38:36;;;;;;;1.60;1.40;;;4.30;98.20;;;;;;5093251;28;20457;-76
2020/12/07 05:41:05;;;;;;;2.83;2.63;;;4.30;98.20;;;;;;5093446;28;20461;-77
2020/12/07 05:43:32;;;;;;;1.60;1.30;;;4.30;98.20;;;;;;5092029;28;21022;-77
2020/12/07 05:46:00;;;;;;;1.63;1.40;;;4.30;98.20;;;;;;5092116;28;20488;-77
2020/12/07 05:48:30;;;;;;;1.60;1.40;;;4.30;98.20;;;;;;5091388;28;20458;-77
2020/12/07 05:51:02;;;;;;;1.60;1.40;;;4.20;98.20;;;;;;5084033;28;20461;-77
2020/12/07 05:53:28;;;;;;;1.60;1.40;;;4.20;98.20;;;;;;5090389;28;20521;-77
2020/12/07 05:55:56;;;;;;;4.07;3.83;;;4.20;98.20;;;;;;5095752;28;20507;-77
2020/12/07 05:58:22;;;;;;;1.60;1.30;;;4.20;98.20;;;;;;5093286;28;20483;-78
2020/12/07 06:00:54;;;;;;;1.60;1.30;;;4.20;98.20;;;;;;5092158;28;20564;-77
2020/12/07 06:03:21;;;;;;;1.60;1.30;;;4.20;98.20;;;;;;5092589;28;20893;-76
2020/12/07 06:05:48;;;;;;;1.70;1.60;;;4.20;98.20;;;;;;5095812;28;20495;-77
2020/12/07 06:08:22;;;;;;;1.60;1.30;;;4.20;98.20;;;;;;5095170;28;21108;-77
2020/12/07 06:10:53;;;;;;;1.60;1.40;;;4.20;98.20;;;;;;5089962;28;21138;-77
2020/12/07 06:13:21;;;;;;;1.63;1.47;;;4.30;98.20;;;;;;5095729;28;20473;-77
2020/12/07 06:15:48;;;;;;;1.60;1.40;;;4.30;98.20;;;;;;5096618;28;20480;-77
2020/12/07 06:18:29;;;;;;;1.60;1.30;;;4.30;98.20;;;;;;5092588;28;20863;-77
2020/12/07 06:20:56;;;;;;;1.60;1.37;;;4.30;98.20;;;;;;5086182;28;20499;-77
2020/12/07 06:23:31;;;;;;;1.60;1.40;;;4.30;98.20;;;;;;5086019;28;20492;-77
2020/12/07 06:26:02;;;;;;;1.60;1.30;;;4.30;98.20;;;;;;5088501;28;21019;-77
2020/12/07 06:28:33;;;;;;;1.60;1.30;;;4.30;98.20;;;;;;5090263;28;20465;-77
2020/12/07 06:31:08;;;;;;;1.60;1.40;;;4.30;98.20;;;;;;5092285;28;20534;-77
2020/12/07 06:33:43;;;;;;;1.60;1.30;;;4.30;98.20;;;;;;5090093;28;20515;-77
2020/12/07 06:36:30;;;;;;;1.60;1.50;;;4.30;98.20;;;;;;5090165;28;20544;-76
2020/12/07 06:38:57;;;;;;;1.60;1.40;;;4.20;98.20;;;;;;5090820;28;20457;-77
2020/12/07 06:41:35;;;;;;;1.60;1.40;;;4.20;98.20;;;;;;5088845;28;20504;-77
2020/12/07 06:44:06;;;;;;;1.70;1.50;;;4.30;98.20;;;;;;5089906;28;20512;-76
2020/12/07 06:46:50;;;;;;;1.87;1.77;;;4.20;98.20;;;;;;5093582;28;20489;-76
2020/12/07 06:49:29;;;;;;;1.60;1.30;;;4.20;98.20;;;;;;5090125;28;20493;-75
2020/12/07 06:52:04;;;;;;;1.60;1.30;;;4.30;98.20;;;;;;5085763;28;20480;-77
2020/12/07 06:57:24;;;;;;;1.60;1.40;;;4.20;98.20;;;;;;5084486;28;20440;-76
2020/12/07 06:59:58;;;;;;;1.63;1.50;;;4.30;98.20;;;;;;5086700;28;20465;-76
2020/12/07 07:02:25;;;;;;;1.60;1.40;;;4.30;98.20;;;;;;5084711;28;20875;-77
2020/12/07 07:04:54;;;;;;;1.60;1.40;;;4.30;98.20;;;;;;5086017;28;20511;-76
2020/12/07 07:07:22;;;;;;;1.60;1.50;;;4.30;98.20;;;;;;5087838;28;20457;-75
2020/12/07 07:09:49;;;;;;;1.70;1.57;;;4.30;98.20;;;;;;5084562;28;20461;-75
2020/12/07 07:12:16;;;;;;;1.60;1.40;;;4.30;98.20;;;;;;5088536;28;20468;-76
2020/12/07 07:14:43;;;;;;;1.60;1.43;;;4.30;98.20;;;;;;5102248;28;20475;-75
2020/12/07 07:17:10;;;;;;;2.30;2.10;;;4.30;98.20;;;;;;5082339;28;20465;-76
2020/12/07 07:19:36;;;;;;;1.60;1.50;;;4.30;98.20;;;;;;5093928;28;20460;-75
2020/12/07 07:22:04;;;;;;;1.60;1.43;;;4.30;98.20;;;;;;5089317;28;20511;-74
2020/12/07 07:24:38;;;;;;;1.60;1.40;;;4.30;98.20;;;;;;5091087;28;20481;-74
2020/12/07 07:27:58;;;;;;;1.60;1.43;;;4.30;98.20;;;;;;5085100;28;20521;-74
2020/12/07 07:29:52;;;;;;;1.60;1.40;;;4.30;98.20;;;;;;5091449;28;20445;-75
2020/12/07 07:32:21;;;;;;;1.60;1.40;;;4.30;98.20;;;;;;5091804;28;21130;-75
2020/12/07 07:34:48;;;;;;;1.60;1.40;;;4.30;98.20;;;;;;5089937;28;20231;-75
2020/12/07 07:37:17;;;;;;;1.60;1.30;;;4.30;98.20;;;;;;5088873;28;20473;-75
2020/12/07 07:39:44;;;;;;;1.60;1.30;;;4.30;98.20;;;;;;5098239;28;20455;-74
2020/12/07 07:42:12;;;;;;;1.60;1.40;;;4.30;98.20;;;;;;5100973;28;20452;-75
2020/12/07 07:44:40;;;;;;;1.60;1.40;;;4.30;98.20;;;;;;5092980;28;20507;-74
2020/12/07 07:47:12;;;;;;;1.60;1.50;;;4.30;98.20;;;;;;5097362;28;20485;-75
2020/12/07 08:15:46;;;;;;;1.60;1.33;;;4.30;98.20;;;;;;5089178;28;20473;-74
2020/12/07 08:18:18;;;;;;;1.60;1.50;;;4.40;98.20;;;;;;5089073;28;20461;-74
2020/12/07 08:20:53;;;;;;;1.60;1.30;;;4.40;98.20;;;;;;5090949;28;20485;-74
2020/12/07 08:23:26;;;;;;;1.60;1.40;;;4.40;98.20;;;;;;5087817;28;20530;-74
2020/12/07 08:25:54;;;;;;;1.60;1.30;;;4.40;98.20;;;;;;5088940;28;20488;-75
2020/12/07 08:28:32;;;;;;;1.60;1.50;;;4.40;98.20;;;;;;5086478;28;20493;-74
2020/12/07 08:31:07;;;;;;;1.63;1.43;;;4.50;98.20;;;;;;5086295;28;20911;-74
2020/12/07 08:33:36;;;;;;;3.63;3.30;;;4.50;98.20;;;;;;5090189;28;20483;-74
2020/12/07 08:36:04;;;;;;;1.60;1.43;;;4.50;98.20;;;;;;5096104;28;20951;-73
2020/12/07 08:38:34;;;;;;;1.63;1.53;;;4.50;98.20;;;;;;5087895;28;20861;-73
2020/12/07 08:41:13;;;;;;;1.60;1.30;;;4.50;98.20;;;;;;5092788;28;20463;-74
2020/12/07 08:43:43;;;;;;;1.60;1.40;;;4.50;98.20;;;;;;5091638;28;20453;-73
2020/12/07 08:46:12;;;;;;;1.60;1.30;;;4.50;98.20;;;;;;5091923;28;20488;-74
2020/12/07 08:48:39;;;;;;;1.60;1.30;;;4.50;98.20;;;;;;5093468;28;20465;-74
2020/12/07 08:51:06;;;;;;;1.60;1.40;;;4.50;98.20;;;;;;5094701;28;20461;-73
2020/12/07 08:53:33;;;;;;;1.60;1.40;;;4.50;98.20;;;;;;5093579;28;20457;-74
2020/12/07 08:55:59;;;;;;;1.60;1.43;;;4.50;98.20;;;;;;5091441;28;20476;-74
2020/12/07 08:58:26;;;;;;;1.60;1.43;;;4.50;98.20;;;;;;5089516;28;20461;-74
2020/12/07 09:00:53;;;;;;;1.60;1.40;;;4.50;98.20;;;;;;5089499;28;21111;-74
2020/12/07 09:03:19;;;;;;;1.70;1.50;;;4.60;98.20;;;;;;5091696;28;20504;-74
2020/12/07 09:05:46;;;;;;;1.60;1.33;;;4.60;98.20;;;;;;5089397;28;20493;-74
2020/12/07 09:08:12;;;;;;;1.60;1.50;;;4.60;98.20;;;;;;5094334;28;20495;-74
2020/12/07 09:10:39;;;;;;;1.60;1.40;;;4.60;98.20;;;;;;5092018;28;20488;-74
2020/12/07 09:13:05;;;;;;;1.60;1.30;;;4.60;98.20;;;;;;5087437;28;21040;-75
2020/12/07 09:15:32;;;;;;;1.60;1.40;;;4.60;98.20;;;;;;5092970;28;20944;-75
2020/12/07 09:17:59;;;;;;;1.60;1.30;;;4.60;98.20;;;;;;5092788;28;20476;-75
2020/12/07 09:20:26;;;;;;;1.60;1.30;;;4.60;98.20;;;;;;5094009;28;20998;-75
2020/12/07 09:22:52;;;;;;;1.60;1.30;;;4.60;98.20;;;;;;5094051;28;20465;-75
2020/12/07 09:25:19;;;;;;;1.60;1.40;;;4.60;98.20;;;;;;5093199;28;20542;-75
2020/12/07 09:27:45;;;;;;;1.60;1.30;;;4.70;98.20;;;;;;5091960;28;21026;-75
2020/12/07 09:30:12;;;;;;;1.60;1.30;;;4.70;98.20;;;;;;5086319;28;20457;-74
2020/12/07 09:32:39;;;;;;;1.60;1.30;;;4.70;98.20;;;;;;5089080;28;20539;-74
2020/12/07 09:35:08;;;;;;;1.60;1.30;;;4.70;98.20;;;;;;5097175;28;21168;-74
2020/12/07 09:37:35;;;;;;;1.60;1.30;;;4.70;98.20;;;;;;5097737;28;20974;-75
2020/12/07 09:40:01;;;;;;;1.60;1.40;;;4.80;98.20;;;;;;5095661;28;20988;-75
2020/12/07 09:42:28;;;;;;;1.60;1.40;;;4.80;98.20;;;;;;5092863;28;21076;-75
2020/12/07 09:44:54;;;;;;;1.60;1.30;;;4.80;98.20;;;;;;5096608;28;20576;-75
2020/12/07 09:47:21;;;;;;;1.60;1.30;;;4.80;98.20;;;;;;5097269;28;20480;-74
2020/12/07 09:49:48;;;;;;;1.60;1.30;;;4.80;98.20;;;;;;5097516;28;20496;-74
2020/12/07 09:52:14;;;;;;;1.60;1.43;;;4.80;98.20;;;;;;5097564;28;20495;-75
2020/12/07 09:54:41;;;;;;;1.60;1.40;;;4.80;98.20;;;;;;5096331;28;20481;-74
2020/12/07 09:57:07;;;;;;;1.60;1.30;;;4.80;98.20;;;;;;5095759;28;20461;-74
2020/12/07 09:59:35;;;;;;;1.60;1.30;;;4.80;98.20;;;;;;5077571;28;21378;-74
2020/12/07 10:02:02;;;;;;;1.60;1.30;;;4.80;98.20;;;;;;5091227;28;20469;-74
2020/12/07 10:04:29;;;;;;;1.60;1.40;;;4.90;98.20;;;;;;5096117;28;20500;-74
2020/12/07 10:06:56;;;;;;;1.60;1.30;;;4.90;98.20;;;;;;5096768;28;20489;-74
2020/12/07 10:09:23;;;;;;;1.60;1.40;;;4.90;98.20;;;;;;5093186;28;20499;-74
2020/12/07 10:11:49;;;;;;;1.60;1.50;;;4.90;98.20;;;;;;5092932;28;20453;-75
2020/12/07 10:14:16;;;;;;;1.60;1.30;;;4.90;98.20;;;;;;5095323;28;21535;-75
2020/12/07 10:16:43;;;;;;;1.60;1.30;;;5.00;98.20;;;;;;5092739;28;20893;-74
2020/12/07 10:19:10;;;;;;;1.60;1.30;;;5.00;98.20;;;;;;5101199;28;20570;-74
2020/12/07 10:21:37;;;;;;;1.60;1.40;;;5.00;98.20;;;;;;5096301;28;20479;-75
2020/12/07 10:24:04;;;;;;;1.60;1.30;;;5.00;98.20;;;;;;5097416;28;20506;-75
2020/12/07 10:26:31;;;;;;;1.60;1.30;;;5.00;98.20;;;;;;5093852;28;20945;-75
2020/12/07 10:28:59;;;;;;;1.60;1.40;;;5.00;98.20;;;;;;5094269;28;20493;-75
2020/12/07 10:31:25;;;;;;;1.63;1.50;;;5.00;98.20;;;;;;5094969;28;20465;-74
2020/12/07 10:33:53;;;;;;;1.60;1.30;;;5.00;98.20;;;;;;5089462;28;20500;-75
2020/12/07 10:36:20;;;;;;;1.60;1.30;;;5.00;98.20;;;;;;5095381;28;20463;-74
2020/12/07 10:38:48;;;;;;;1.60;1.30;;;5.00;98.20;;;;;;5097074;28;20461;-74
2020/12/07 10:41:15;;;;;;;1.60;1.30;;;5.10;98.20;;;;;;5091913;28;20485;-74
2020/12/07 10:43:43;;;;;;;1.60;1.30;;;5.10;98.20;;;;;;5091937;28;20733;-75
2020/12/07 10:46:12;;;;;;;1.60;1.30;;;5.10;98.20;;;;;;5092847;28;20530;-75
2020/12/07 10:48:40;;;;;;;1.57;1.30;;;5.10;98.20;;;;;;5095484;28;20496;-75
2020/12/07 10:51:06;;;;;;;1.60;1.40;;;5.10;98.20;;;;;;5094577;28;20461;-74
2020/12/07 10:53:33;;;;;;;1.60;1.40;;;5.10;98.20;;;;;;5098818;28;20488;-75
2020/12/07 11:07:18;;;;;;;1.60;1.33;;;5.10;98.20;;;;;;5053644;28;20582;-74
2020/12/07 11:09:44;;;;;;;1.60;1.50;;;5.20;98.20;;;;;;5052037;28;20580;-75
2020/12/07 11:12:14;;;;;;;1.60;1.30;;;5.20;98.20;;;;;;5063285;28;20478;-75
2020/12/07 11:14:40;;;;;;;1.60;1.30;;;5.20;98.20;;;;;;5055563;28;20459;-75
2020/12/07 11:17:08;;;;;;;1.60;1.30;;;5.30;98.20;;;;;;5058939;28;20497;-75
2020/12/07 11:19:34;;;;;;;1.60;1.30;;;5.30;98.20;;;;;;5063638;28;20466;-75
2020/12/07 11:22:01;;;;;;;1.60;1.40;;;5.30;98.20;;;;;;5065014;28;20882;-75
2020/12/07 11:24:28;;;;;;;1.60;1.30;;;5.30;98.20;;;;;;5065837;28;20455;-75
2020/12/07 11:26:55;;;;;;;1.60;1.30;;;5.30;98.20;;;;;;5045361;28;20589;-75
2020/12/07 11:29:21;;;;;;;1.60;1.27;;;5.30;98.20;;;;;;5054560;28;20508;-75
2020/12/07 11:31:49;;;;;;;1.60;1.40;;;5.40;98.20;;;;;;5055587;28;20487;-74
2020/12/07 11:34:19;;;;;;;1.60;1.40;;;5.40;98.20;;;;;;5056665;28;20466;-75
2020/12/07 11:36:46;;;;;;;2.10;1.90;;;5.40;98.20;;;;;;5057432;28;20490;-75
2020/12/07 11:39:25;;;;;;;1.60;1.33;;;5.40;98.20;;;;;;5056868;28;20505;-75
2020/12/07 11:42:05;;;;;;;1.60;1.30;;;5.50;98.20;;;;;;5057783;28;20485;-75
2020/12/07 11:44:31;;;;;;;1.60;1.30;;;5.50;98.20;;;;;;5055225;28;20464;-75
2020/12/07 11:47:00;;;;;;;1.60;1.30;;;5.50;98.20;;;;;;5057258;28;21005;-76
2020/12/07 11:49:26;;;;;;;1.60;1.37;;;5.50;98.20;;;;;;5056780;28;20459;-75
2020/12/07 11:51:53;;;;;;;1.60;1.30;;;5.60;98.20;;;;;;5058169;28;20509;-75
2020/12/07 11:54:19;;;;;;;1.60;1.30;;;5.60;98.20;;;;;;5063539;28;20872;-75
2020/12/07 11:56:46;;;;;;;1.60;1.27;;;5.60;98.20;;;;;;5053643;28;20585;-75
2020/12/07 11:59:14;;;;;;;1.60;1.30;;;5.60;98.20;;;;;;5056281;28;20733;-76
2020/12/07 12:01:41;;;;;;;1.60;1.40;;;5.60;98.20;;;;;;5066726;28;20462;-75
2020/12/07 12:04:07;;;;;;;1.60;1.40;;;5.70;98.20;;;;;;5051982;28;20481;-75
2020/12/07 12:06:35;;;;;;;2.37;2.17;;;5.70;98.20;;;;;;5055179;28;20483;-75
2020/12/07 12:09:04;;;;;;;1.60;1.40;;;5.70;98.20;;;;;;5052694;28;21154;-75
2020/12/07 12:11:32;;;;;;;1.60;1.40;;;5.70;98.20;;;;;;5054094;28;20909;-75
2020/12/07 12:13:59;;;;;;;1.60;1.40;;;5.70;98.20;;;;;;5052219;28;20517;-75
2020/12/07 12:16:27;;;;;;;1.60;1.40;;;5.70;98.20;;;;;;5047815;28;20491;-75
2020/12/07 12:18:54;;;;;;;1.60;1.30;;;5.70;98.20;;;;;;5058270;28;20459;-75
2020/12/07 12:21:21;;;;;;;1.60;1.30;;;5.70;98.20;;;;;;5049158;28;20463;-75
2020/12/07 12:23:47;;;;;;;1.60;1.33;;;5.80;98.20;;;;;;5048007;28;20906;-75
2020/12/07 12:26:14;;;;;;;1.60;1.30;;;5.80;98.20;;;;;;5050155;28;20476;-75
2020/12/07 12:28:41;;;;;;;1.60;1.33;;;5.80;98.20;;;;;;5047532;28;20462;-75
2020/12/07 12:31:08;;;;;;;1.60;1.47;;;5.80;98.20;;;;;;5041758;28;20471;-75
2020/12/07 12:33:35;;;;;;;1.60;1.30;;;5.90;98.20;;;;;;5048489;28;20459;-75
2020/12/07 12:36:02;;;;;;;1.60;1.30;;;5.90;98.20;;;;;;5050284;28;20523;-75
2020/12/07 12:38:28;;;;;;;1.60;1.33;;;5.90;98.20;;;;;;5037919;28;20502;-75
2020/12/07 12:40:55;;;;;;;1.60;1.30;;;6.00;98.20;;;;;;5032790;28;21006;-75
2020/12/07 12:43:21;;;;;;;1.60;1.40;;;6.00;98.20;;;;;;5047975;28;21041;-75
2020/12/07 12:45:48;;;;;;;1.60;1.30;;;6.00;98.20;;;;;;5040215;28;21027;-75
2020/12/07 12:48:14;;;;;;;1.60;1.30;;;6.00;98.20;;;;;;5044063;28;20490;-75
2020/12/07 12:50:42;;;;;;;1.60;1.30;;;6.00;98.20;;;;;;5051101;28;20495;-75
2020/12/07 12:53:08;;;;;;;1.60;1.50;;;6.00;98.20;;;;;;5041083;28;20482;-75
2020/12/07 12:55:34;;;;;;;1.60;1.20;;;6.00;98.20;;;;;;5039193;28;20967;-76
2020/12/07 12:58:01;;;;;;;1.60;1.30;;;6.00;98.20;;;;;;5050313;28;20534;-76
2020/12/07 13:00:27;;;;;;;1.60;1.40;;;6.00;98.20;;;;;;5048075;28;20462;-76
2020/12/07 13:02:54;;;;;;;1.60;1.40;;;6.00;98.20;;;;;;5044945;28;20459;-76
2020/12/07 13:05:20;;;;;;;1.60;1.30;;;6.00;98.20;;;;;;5042653;28;20471;-75
2020/12/07 13:07:48;;;;;;;1.60;1.30;;;6.00;98.20;;;;;;5042007;28;20463;-75
2020/12/07 13:10:14;;;;;;;1.60;1.37;;;6.00;98.20;;;;;;5041998;28;20463;-75
2020/12/07 13:12:41;;;;;;;1.60;1.30;;;5.90;98.20;;;;;;5055275;28;20458;-75
2020/12/07 13:15:07;;;;;;;1.60;1.50;;;5.90;98.20;;;;;;5035912;28;20516;-75
2020/12/07 13:17:37;;;;;;;1.60;1.40;;;5.90;98.20;;;;;;5039219;28;20472;-75
2020/12/07 13:20:07;;;;;;;1.60;1.20;;;6.00;98.20;;;;;;5044371;28;20981;-75
2020/12/07 13:22:38;;;;;;;1.60;1.20;;;6.00;98.20;;;;;;5037732;28;20473;-75
2020/12/07 13:25:08;;;;;;;1.60;1.30;;;6.00;98.20;;;;;;5039281;28;20453;-75
2020/12/07 13:27:46;;;;;;;1.60;1.30;;;6.00;98.20;;;;;;5036413;28;20470;-75
2020/12/07 13:30:14;;;;;;;1.60;1.20;;;6.00;98.20;;;;;;5048230;28;20669;-75
2020/12/07 13:32:40;;;;;;;1.60;1.30;;;6.00;98.20;;;;;;5042631;28;20465;-75
2020/12/07 13:35:07;;;;;;;1.53;1.20;;;6.00;98.20;;;;;;5048131;28;20505;-75
2020/12/07 13:37:33;;;;;;;1.60;1.33;;;6.00;98.20;;;;;;5042289;28;20455;-75
2020/12/07 13:40:00;;;;;;;1.60;1.30;;;6.00;98.20;;;;;;5036098;28;20522;-75